createdAt,value
2019-02-04T00:04:41.364Z,4.40
2019-02-04T00:09:40.837Z,5.10
2019-02-04T00:14:40.368Z,4.72
2019-02-04T00:17:10.656Z,5.05
2019-02-04T00:19:39.997Z,4.65
2019-02-04T00:24:42.864Z,4.75
2019-02-04T00:27:14.745Z,4.87
2019-02-04T00:29:46.899Z,4.70
2019-02-04T00:33:06.519Z,4.97
2019-02-04T00:35:39.449Z,4.70
2019-02-04T00:38:10.884Z,4.77
2019-02-04T00:43:11.878Z,4.40
2019-02-04T00:48:12.176Z,4.90
2019-02-04T00:50:43.936Z,4.30
2019-02-04T00:53:15.755Z,4.50
2019-02-04T01:05:06.952Z,4.30
2019-02-04T01:07:38.768Z,4.10
2019-02-04T01:15:13.833Z,4.30
2019-02-04T01:20:20.741Z,4.35
2019-02-04T01:25:23.847Z,4.07
2019-02-04T01:35:29.781Z,3.83
2019-02-04T01:38:01.055Z,3.80
2019-02-04T01:40:32.730Z,4.37
2019-02-04T01:43:06.825Z,3.80
2019-02-04T01:45:39.848Z,3.70
2019-02-04T01:50:41.820Z,3.80
2019-02-04T01:53:12.868Z,3.83
2019-02-04T01:55:44.821Z,3.92
2019-02-04T01:58:15.877Z,4.05
2019-02-04T02:08:18.864Z,3.83
2019-02-04T02:13:19.871Z,3.85
2019-02-04T02:15:51.846Z,4.42
2019-02-04T02:18:21.852Z,3.52
2019-02-04T02:20:52.875Z,4.00
2019-02-04T02:25:53.859Z,3.50
2019-02-04T02:28:26.683Z,3.52
2019-02-04T02:38:24.825Z,3.30
2019-02-04T02:50:57.834Z,3.90
2019-02-04T02:53:27.854Z,3.40
2019-02-04T03:00:59.855Z,3.80
2019-02-04T03:08:27.765Z,3.22
2019-02-04T03:11:04.834Z,3.60
2019-02-04T03:13:35.828Z,3.55
2019-02-04T03:16:05.877Z,3.20
2019-02-04T03:18:36.838Z,3.65
2019-02-04T03:21:06.876Z,4.00
2019-02-04T03:32:10.779Z,3.70
2019-02-04T03:37:07.881Z,3.47
2019-02-04T03:44:34.838Z,3.40
2019-02-04T03:47:03.793Z,3.98
2019-02-04T03:52:02.835Z,3.30
2019-02-04T03:59:29.323Z,3.10
2019-02-04T04:06:58.554Z,3.60
2019-02-04T04:11:55.755Z,3.40
2019-02-04T04:16:23.105Z,3.40
2019-02-04T04:18:50.397Z,3.62
2019-02-04T04:21:20.321Z,3.53
2019-02-04T04:23:50.338Z,2.95
2019-02-04T04:31:15.824Z,3.25
2019-02-04T04:33:44.645Z,3.50
2019-02-04T04:48:26.696Z,3.10
2019-02-04T04:50:53.486Z,3.10
2019-02-04T04:53:21.255Z,3.08
2019-02-04T05:03:16.905Z,3.33
2019-02-04T05:10:42.923Z,3.40
2019-02-04T05:13:11.842Z,2.87
2019-02-04T05:15:40.967Z,3.00
2019-02-04T05:25:23.849Z,2.80
2019-02-04T05:27:53.682Z,3.00
2019-02-04T05:30:24.355Z,3.00
2019-02-04T05:32:53.314Z,2.90
2019-02-04T05:35:22.846Z,3.35
2019-02-04T05:40:18.902Z,3.05
2019-02-04T05:42:48.630Z,2.98
2019-02-04T05:45:19.388Z,3.27
2019-02-04T05:47:48.759Z,3.00
2019-02-04T05:55:17.997Z,3.02
2019-02-04T05:57:46.805Z,3.17
2019-02-04T06:03:08.815Z,2.85
2019-02-04T06:13:03.350Z,3.40
2019-02-04T06:15:31.679Z,3.05
2019-02-04T06:22:55.950Z,2.80
2019-02-04T06:25:25.064Z,2.87
2019-02-04T06:27:53.847Z,3.30
2019-02-04T06:37:48.800Z,3.65
2019-02-04T06:40:18.396Z,3.60
2019-02-04T06:42:47.610Z,3.30
2019-02-04T06:45:17.824Z,3.83
2019-02-04T06:47:46.756Z,3.70
2019-02-04T06:52:44.075Z,3.77
2019-02-04T06:55:16.706Z,3.87
2019-02-04T07:00:16.317Z,3.50
2019-02-04T07:02:46.326Z,3.40
2019-02-04T07:05:15.371Z,3.45
2019-02-04T07:07:44.800Z,3.42
2019-02-04T07:12:47.748Z,3.40
2019-02-04T07:17:44.694Z,3.65
2019-02-04T07:20:17.843Z,3.72
2019-02-04T07:33:55.760Z,3.60
2019-02-04T07:41:20.764Z,3.43
2019-02-04T07:46:25.082Z,3.50
2019-02-04T07:48:53.491Z,4.20
2019-02-04T07:51:21.808Z,3.43
2019-02-04T08:09:36.344Z,4.67
2019-02-04T08:12:06.780Z,4.72
2019-02-04T08:22:02.779Z,4.75
2019-02-04T08:24:31.776Z,4.80
2019-02-04T08:31:57.590Z,4.50
2019-02-04T08:34:26.782Z,4.47
2019-02-04T08:40:29.079Z,5.50
2019-02-04T08:42:57.781Z,4.37
2019-02-04T08:45:26.924Z,4.20
2019-02-04T08:47:57.065Z,3.73
2019-02-04T08:50:25.645Z,4.80
2019-02-04T08:53:59.083Z,4.20
2019-02-04T08:56:29.648Z,4.20
2019-02-04T08:58:58.063Z,4.65
2019-02-04T09:01:26.838Z,4.77
2019-02-04T09:03:55.381Z,4.80
2019-02-04T09:06:24.709Z,4.75
2019-02-04T09:11:22.751Z,5.20
2019-02-04T09:16:23.621Z,4.60
2019-02-04T09:19:47.661Z,4.40
2019-02-04T09:24:46.450Z,4.20
2019-02-04T09:27:14.668Z,4.95
2019-02-04T09:32:12.004Z,4.40
2019-02-04T09:37:08.824Z,4.10
2019-02-04T09:39:38.874Z,4.45
2019-02-04T09:43:48.332Z,4.53
2019-02-04T09:48:46.112Z,4.30
2019-02-04T09:53:44.928Z,4.45
2019-02-04T09:56:14.719Z,4.10
2019-02-04T09:58:44.671Z,4.70
2019-02-04T10:01:14.901Z,4.22
2019-02-04T10:03:44.441Z,4.70
2019-02-04T10:06:12.965Z,4.25
2019-02-04T10:08:42.317Z,5.05
2019-02-04T10:11:10.680Z,4.33
2019-02-04T10:13:39.611Z,3.90
2019-02-04T10:18:37.935Z,4.80
2019-02-04T10:21:07.505Z,4.03
2019-02-04T10:23:37.997Z,3.80
2019-02-04T10:26:06.013Z,4.20
2019-02-04T10:28:34.784Z,4.70
2019-02-04T10:33:32.327Z,3.97
2019-02-04T10:36:01.982Z,3.80
2019-02-04T10:38:31.075Z,5.00
2019-02-04T10:40:59.699Z,4.10
2019-02-04T10:43:27.434Z,4.40
2019-02-04T10:45:57.651Z,4.35
2019-02-04T10:48:27.678Z,4.20
2019-02-04T10:53:24.763Z,4.10
2019-02-04T10:55:54.055Z,3.80
2019-02-04T10:58:23.829Z,3.58
2019-02-04T11:03:22.755Z,4.58
2019-02-04T11:05:56.369Z,3.80
2019-02-04T11:08:25.732Z,4.20
2019-02-04T11:10:54.742Z,4.23
2019-02-04T11:13:23.749Z,3.70
2019-02-04T11:29:23.439Z,3.65
2019-02-04T11:34:20.656Z,3.40
2019-02-04T11:36:50.472Z,3.40
2019-02-04T11:41:23.357Z,3.25
2019-02-04T11:43:55.888Z,3.45
2019-02-04T11:46:27.111Z,3.95
2019-02-04T11:48:57.410Z,3.10
2019-02-04T11:54:12.861Z,3.43
2019-02-04T11:56:43.017Z,3.40
2019-02-04T11:59:12.703Z,3.00
2019-02-04T12:04:12.714Z,3.80
2019-02-04T12:09:12.726Z,3.50
2019-02-04T12:11:42.389Z,3.40
2019-02-04T12:16:40.331Z,3.60
2019-02-04T12:19:10.247Z,3.50
2019-02-04T12:21:39.547Z,3.10
2019-02-04T12:24:08.767Z,3.08
2019-02-04T12:26:38.387Z,3.00
2019-02-04T12:29:09.000Z,3.35
2019-02-04T12:31:38.587Z,2.80
2019-02-04T12:36:38.922Z,2.63
2019-02-04T12:39:18.896Z,2.70
2019-02-04T12:41:50.648Z,2.83
2019-02-04T12:46:46.987Z,2.50
2019-02-04T12:49:15.588Z,2.20
2019-02-04T12:51:45.116Z,2.40
2019-02-04T12:54:14.157Z,2.55
2019-02-04T12:56:43.862Z,2.55
2019-02-04T12:59:12.740Z,2.30
2019-02-04T13:01:42.724Z,2.30
2019-02-04T13:04:11.702Z,2.10
2019-02-04T13:09:09.610Z,2.00
2019-02-04T13:11:38.652Z,2.30
2019-02-04T13:14:08.579Z,2.20
2019-02-04T13:16:38.671Z,1.85
2019-02-04T13:19:08.538Z,2.30
2019-02-04T13:29:03.434Z,2.20
2019-02-04T13:31:31.939Z,2.22
2019-02-04T13:34:00.225Z,2.20
2019-02-04T13:36:28.925Z,2.30
2019-02-04T13:38:57.442Z,2.10
2019-02-04T13:41:26.200Z,2.40
2019-02-04T13:43:56.040Z,2.40
2019-02-04T13:46:27.400Z,2.30
2019-02-04T13:48:57.076Z,2.50
2019-02-04T13:51:26.327Z,2.27
2019-02-04T13:53:57.143Z,2.10
2019-02-04T13:56:25.054Z,2.10
2019-02-04T13:58:54.106Z,2.30
2019-02-04T14:01:21.756Z,1.90
2019-02-04T14:03:51.883Z,1.93
2019-02-04T14:06:20.186Z,2.20
2019-02-04T14:08:50.188Z,2.05
2019-02-04T14:11:19.785Z,2.10
2019-02-04T14:13:49.822Z,2.90
2019-02-04T14:16:18.372Z,2.30
2019-02-04T14:18:47.750Z,2.40
2019-02-04T14:21:17.230Z,2.10
2019-02-04T14:23:46.825Z,2.00
2019-02-04T14:26:15.128Z,2.50
2019-02-04T14:28:43.999Z,2.40
2019-02-04T14:31:12.595Z,2.40
2019-02-04T14:33:41.400Z,2.60
2019-02-04T14:36:10.270Z,2.30
2019-02-04T14:38:39.376Z,3.80
2019-02-04T14:41:09.650Z,3.60
2019-02-04T14:43:59.514Z,3.90
2019-02-04T14:46:58.942Z,3.30
2019-02-04T14:50:38.832Z,3.03
2019-02-04T14:56:33.067Z,2.90
2019-02-04T14:59:36.740Z,3.20
2019-02-04T15:03:19.067Z,3.07
2019-02-04T15:09:46.660Z,2.90
2019-02-04T15:13:22.469Z,3.20
2019-02-04T15:16:29.598Z,3.60
2019-02-04T15:19:50.440Z,4.00
2019-02-04T15:22:34.281Z,4.35
2019-02-04T15:28:13.357Z,4.95
2019-02-04T15:31:17.290Z,5.37
2019-02-04T15:34:49.094Z,5.35
2019-02-04T15:37:59.980Z,6.30
2019-02-04T15:44:36.722Z,6.50
2019-02-04T15:47:15.106Z,6.67
2019-02-04T15:50:25.529Z,6.40
2019-02-04T15:57:51.950Z,6.63
2019-02-04T16:00:21.582Z,6.53
2019-02-04T16:02:50.747Z,6.10
2019-02-04T16:05:20.964Z,5.30
2019-02-04T16:07:49.135Z,6.60
2019-02-04T16:10:19.215Z,6.00
2019-02-04T16:12:49.784Z,6.05
2019-02-04T16:15:18.816Z,5.60
2019-02-04T16:17:47.473Z,5.80
2019-02-04T16:20:20.314Z,5.87
2019-02-04T16:22:57.747Z,6.17
2019-02-04T16:25:19.640Z,6.40
2019-02-04T16:27:47.100Z,5.90
2019-02-04T16:30:17.676Z,5.65
2019-02-04T16:32:45.723Z,6.00
2019-02-04T16:35:15.375Z,5.80
2019-02-04T16:37:44.666Z,5.67
2019-02-04T16:40:16.353Z,5.50
2019-02-04T16:42:45.963Z,6.00
2019-02-04T16:45:14.609Z,5.70
2019-02-04T16:47:45.152Z,6.50
2019-02-04T16:50:21.387Z,5.70
2019-02-04T16:52:51.755Z,5.70
2019-02-04T16:55:20.373Z,5.50
2019-02-04T16:57:47.873Z,5.20
2019-02-04T17:00:23.191Z,5.57
2019-02-04T17:02:54.300Z,5.40
2019-02-04T17:05:24.911Z,5.75
2019-02-04T17:07:54.840Z,5.10
2019-02-04T17:10:24.961Z,6.00
2019-02-04T17:12:54.228Z,6.10
2019-02-04T17:15:25.515Z,4.90
2019-02-04T17:17:53.910Z,5.50
2019-02-04T17:20:29.922Z,5.40
2019-02-04T17:22:58.324Z,5.45
2019-02-04T17:25:28.227Z,4.70
2019-02-04T17:27:57.185Z,5.70
2019-02-04T17:30:24.674Z,4.30
2019-02-04T17:32:54.725Z,5.20
2019-02-04T17:35:23.017Z,4.80
2019-02-04T17:40:20.772Z,5.43
2019-02-04T17:45:20.300Z,5.07
2019-02-04T17:47:50.007Z,4.80
2019-02-04T17:50:19.611Z,4.60
2019-02-04T17:52:50.421Z,4.35
2019-02-04T17:55:21.830Z,4.90
2019-02-04T17:57:52.003Z,5.23
2019-02-04T18:00:29.739Z,4.45
2019-02-04T18:03:01.377Z,4.80
2019-02-04T18:05:30.761Z,5.10
2019-02-04T18:08:00.598Z,4.23
2019-02-04T18:10:30.189Z,4.70
2019-02-04T18:13:03.351Z,5.10
2019-02-04T18:15:34.402Z,4.20
2019-02-04T18:18:05.850Z,4.10
2019-02-04T18:20:37.619Z,5.58
2019-02-04T18:25:42.850Z,4.90
2019-02-04T18:28:14.575Z,4.30
2019-02-04T18:30:45.895Z,4.83
2019-02-04T18:33:18.000Z,5.10
2019-02-04T18:35:49.439Z,4.80
2019-02-04T18:38:21.473Z,5.00
2019-02-04T18:40:53.467Z,5.10
2019-02-04T18:43:25.131Z,5.40
2019-02-04T18:45:57.546Z,5.85
2019-02-04T18:48:29.270Z,5.90
2019-02-04T18:51:02.577Z,6.40
2019-02-04T18:53:35.591Z,6.80
2019-02-04T18:56:07.531Z,5.80
2019-02-04T18:58:39.936Z,5.33
2019-02-04T19:03:46.318Z,5.80
2019-02-04T19:06:18.159Z,5.90
2019-02-04T19:08:51.120Z,5.20
2019-02-04T19:13:51.183Z,5.75
2019-02-04T19:16:23.715Z,4.95
2019-02-04T19:18:56.046Z,5.55
2019-02-04T19:21:29.059Z,5.75
2019-02-04T19:24:09.271Z,5.23
2019-02-04T19:26:33.897Z,5.70
2019-02-04T19:29:58.004Z,5.40
2019-02-04T19:32:31.163Z,5.15
2019-02-04T19:35:03.434Z,4.80
2019-02-04T19:37:35.246Z,5.13
2019-02-04T19:40:08.278Z,5.40
2019-02-04T19:42:42.180Z,5.20
2019-02-04T19:45:17.362Z,5.40
2019-02-04T19:47:50.722Z,5.20
2019-02-04T19:50:26.915Z,5.10
2019-02-04T19:52:59.083Z,5.20
2019-02-04T19:55:31.201Z,5.55
2019-02-04T19:58:05.677Z,5.73
2019-02-04T20:00:40.135Z,4.60
2019-02-04T20:03:12.154Z,4.90
2019-02-04T20:05:45.413Z,5.20
2019-02-04T20:08:18.692Z,4.63
2019-02-04T20:10:51.426Z,5.40
2019-02-04T20:13:24.249Z,4.25
2019-02-04T20:15:58.015Z,4.67
2019-02-04T20:18:31.969Z,4.95
2019-02-04T20:21:05.537Z,4.70
2019-02-04T20:23:40.003Z,4.90
2019-02-04T20:28:45.393Z,4.45
2019-02-04T20:31:18.636Z,5.05
2019-02-04T20:33:53.899Z,4.70
2019-02-04T20:36:27.245Z,4.95
2019-02-04T20:38:59.193Z,4.57
2019-02-04T20:41:33.697Z,4.70
2019-02-04T20:46:39.613Z,4.90
2019-02-04T20:49:12.263Z,4.40
2019-02-04T20:54:21.307Z,4.15
2019-02-04T20:56:55.934Z,4.45
2019-02-04T20:59:31.755Z,4.87
2019-02-04T21:02:03.690Z,4.93
2019-02-04T21:04:36.411Z,4.40
2019-02-04T21:07:09.376Z,4.90
2019-02-04T21:12:12.780Z,4.97
2019-02-04T21:14:44.020Z,4.10
2019-02-04T21:17:15.584Z,5.10
2019-02-04T21:21:51.683Z,3.80
2019-02-04T21:24:21.972Z,4.50
2019-02-04T21:26:53.647Z,4.60
2019-02-04T21:29:25.660Z,4.60
2019-02-04T21:31:56.612Z,4.50
2019-02-04T21:34:26.126Z,4.70
2019-02-04T21:39:44.954Z,4.50
2019-02-04T21:42:15.283Z,4.60
2019-02-04T21:44:46.963Z,4.95
2019-02-04T21:47:17.631Z,4.50
2019-02-04T21:52:17.633Z,4.70
2019-02-04T21:54:46.758Z,5.30
2019-02-04T21:57:17.660Z,4.20
2019-02-04T21:59:47.716Z,4.40
2019-02-04T22:02:18.638Z,4.43
2019-02-04T22:04:50.760Z,5.45
2019-02-04T22:07:20.956Z,4.65
2019-02-04T22:12:19.657Z,4.45
2019-02-04T22:14:50.749Z,4.50
2019-02-04T22:17:20.030Z,4.35
2019-02-04T22:19:51.588Z,4.10
2019-02-04T22:22:21.763Z,4.40
2019-02-04T22:24:53.471Z,3.90
2019-02-04T22:27:23.622Z,4.40
2019-02-04T22:29:53.641Z,4.70
2019-02-04T22:32:26.211Z,4.60
2019-02-04T22:34:56.991Z,4.50
2019-02-04T22:37:27.621Z,4.40
2019-02-04T22:39:58.654Z,4.50
2019-02-04T22:42:27.555Z,4.07
2019-02-04T22:44:57.976Z,4.70
2019-02-04T22:47:27.992Z,4.47
2019-02-04T22:49:58.901Z,4.35
2019-02-04T22:52:27.912Z,4.80
2019-02-04T22:54:59.531Z,4.25
2019-02-04T22:57:27.652Z,4.58
2019-02-04T22:59:58.318Z,4.00
2019-02-04T23:02:26.967Z,4.30
2019-02-04T23:04:57.654Z,4.10
2019-02-04T23:07:27.638Z,4.25
2019-02-04T23:09:57.913Z,4.60
2019-02-04T23:12:27.667Z,4.00
2019-02-04T23:14:57.945Z,4.00
2019-02-04T23:17:28.758Z,4.17
2019-02-04T23:22:43.957Z,4.60
2019-02-04T23:25:10.718Z,4.60
2019-02-04T23:27:40.598Z,3.90
2019-02-04T23:30:11.467Z,4.40
2019-02-04T23:32:42.438Z,5.10
2019-02-04T23:35:13.118Z,4.40
2019-02-04T23:37:42.089Z,4.30
2019-02-04T23:40:12.113Z,4.70
2019-02-04T23:42:42.068Z,4.70
2019-02-04T23:51:21.271Z,4.25
2019-02-04T23:53:51.091Z,4.10
2019-02-04T23:56:23.013Z,4.20
2019-02-04T23:58:53.005Z,4.60
